Kalamakion, Greece
Current Conditions -  °F | °C
As of 10:50 PM on Sunday 21 Dec 2014 (Local Time) from LGAV Reporting Station
Few Clouds Few Clouds  
Wind Chill: 52°   Ceiling: Unl
Heat Index: 52°   Visibility: 6mi
Dew Point: 34°   Wind: 16mph
Humidity: 50%   Direction: 10°N
Pressure: 30.24"   Gusts: 28mph
Location:  37.92°N, 23.72°E
Report Text: LGAV 211950Z 01014G24KT 9999 FEW025 11/01 Q1024 NOSIG
Loading
Personal Weather Stations






























Interactive Weather Map New forecast layout! Learn more

10-Day Weather Forecast

Advertisements
Track Severe Weather on mobile